Terminal Aerodrome Forecast
Issued by NWS

Home | Current Version | Previous Version | Graphics & Text | Print | Product List | Glossary Off
Versions: 1 2 3 4 5 6 7 8 9 10 11 12 13 14 15 16

692
FTUS43 KMPX 202335
TAFRWF
TAF
KRWF 202335Z 2100/2124 12008KT P6SM BKN080
     FM210700 VRB03KT P6SM OVC030
     FM210900 10004KT 6SM -SHRA OVC020
     FM211600 11006KT P6SM OVC020=

USA.gov is the U.S. government's official web portal to all federal, state and local government web resources and services.